White Mountain, AK (99784)

6:20 PM AKDT on August 27, 2016 (GMT -0800)
White Mountain | | Change Station

Elev 266 ft 64.69 °N, 163.41 °W | Updated 11 minutes ago

Overcast
Overcast
54 °F
Feels Like 54 °F
N
6
Wind Variable Wind from West

Today
High -- | Low -- °F
--% Chance of Precip.
Yesterday
High -- | Low -- °F
Precip. -- in
Pressure 30.34 in
Visibility 10.0 miles
Clouds Overcast 1100 ft
Dew Point 50 °F
Humidity 88%
Rainfall 0.00 in
Snow Depth Not available.
7:19 AM 10:26 PM
Waning Crescent, 19% visible
SPECI PAWM 280209Z AUTO 27005KT 10SM OVC011 12/10 A3034 RMK AO2
Pressure 30.34 in
Visibility 10.0 miles
Clouds Overcast 1100 ft
Dew Point 50 °F
Humidity 88%
Rainfall 0.00 in
Snow Depth Not available.
7:19 AM 10:26 PM
Waning Crescent, 19% visible
SPECI PAWM 280209Z AUTO 27005KT 10SM OVC011 12/10 A3034 RMK AO2

10-Day Weather Forecast

Almanac

Astronomy

Aug. 27, 2016 Rise Set
Actual Time
Civil Twilight
Nautical Twilight
Astronomical Twilight
Moon
Length of Visible Light
Length of Day
Tomorrow will be .
, % of the Moon is Illuminated

Today's Extremes

State Highs State Lows

Community

WunderPhotos

Upload Photos

1,935,493 photos uploaded!

WunderBlog® & News

Nearby

Air Quality

  Air Quality AQ Index Pollutant
Not available.

Snow Depth

Station Depth Elevation

Earthquake Activity

City Distance Mag. Time & Date
Minimum magnitude displayed is 2.5.

Coastal Water Temperatures

Place Temperature

Stations

Nearby Weather Stations

Station Location Temp. Windchill Dew Point Humidity Wind Precip. Elev Updated Type
                   

Watches & Warnings

There are currently no watches in effect.